createdAt,value
2017-10-11T00:02:07.175Z,8.97
2017-10-11T00:04:34.882Z,9.17
2017-10-11T00:07:02.540Z,9.50
2017-10-11T00:09:30.268Z,9.43
2017-10-11T00:11:58.699Z,8.90
2017-10-11T00:14:26.346Z,9.40
2017-10-11T00:16:54.053Z,8.80
2017-10-11T00:19:21.712Z,9.53
2017-10-11T00:21:49.444Z,9.17
2017-10-11T00:24:17.117Z,10.07
2017-10-11T00:26:44.823Z,10.40
2017-10-11T00:29:13.245Z,9.10
2017-10-11T00:31:40.947Z,10.10
2017-10-11T00:34:09.387Z,9.33
2017-10-11T00:36:37.095Z,8.80
2017-10-11T00:39:05.527Z,8.90
2017-10-11T00:41:33.239Z,8.90
2017-10-11T00:44:00.903Z,8.20
2017-10-11T00:46:28.614Z,9.43
2017-10-11T00:48:56.264Z,9.53
2017-10-11T00:51:23.978Z,9.50
2017-10-11T00:53:51.631Z,9.30
2017-10-11T00:56:20.140Z,9.70
2017-10-11T00:58:47.863Z,8.37
2017-10-11T01:01:16.379Z,8.57
2017-10-11T01:03:44.067Z,9.60
2017-10-11T01:06:11.844Z,8.53
2017-10-11T01:08:39.531Z,8.57
2017-10-11T01:11:08.015Z,9.00
2017-10-11T01:13:35.709Z,8.77
2017-10-11T01:16:03.435Z,8.60
2017-10-11T01:18:31.203Z,9.03
2017-10-11T01:20:58.936Z,8.40
2017-10-11T01:23:27.470Z,8.20
2017-10-11T01:25:55.227Z,7.43
2017-10-11T01:28:23.000Z,8.73
2017-10-11T01:30:50.699Z,8.27
2017-10-11T01:33:18.464Z,7.93
2017-10-11T01:35:46.951Z,8.83
2017-10-11T01:38:15.485Z,8.20
2017-10-11T01:40:43.212Z,7.80
2017-10-11T01:43:10.985Z,8.30
2017-10-11T01:45:38.719Z,8.30
2017-10-11T01:48:07.256Z,8.57
2017-10-11T01:50:34.979Z,7.50
2017-10-11T01:53:02.748Z,7.73
2017-10-11T01:55:30.475Z,7.73
2017-10-11T01:57:58.972Z,8.13
2017-10-11T02:00:26.647Z,8.13
2017-10-11T02:02:54.351Z,7.80
2017-10-11T02:05:22.024Z,8.40
2017-10-11T02:07:49.736Z,7.70
2017-10-11T02:10:17.399Z,7.73
2017-10-11T02:12:45.140Z,8.27
2017-10-11T02:15:12.807Z,8.07
2017-10-11T02:17:40.539Z,8.60
2017-10-11T02:20:08.971Z,7.33
2017-10-11T02:22:36.699Z,7.70
2017-10-11T02:25:04.387Z,9.00
2017-10-11T02:27:32.069Z,8.00
2017-10-11T02:29:59.771Z,7.50
2017-10-11T02:32:27.444Z,7.60
2017-10-11T02:34:55.149Z,8.63
2017-10-11T02:37:22.814Z,8.80
2017-10-11T02:39:50.527Z,7.90
2017-10-11T02:42:18.192Z,8.57
2017-10-11T02:44:45.889Z,9.60
2017-10-11T02:47:13.542Z,8.93
2017-10-11T02:49:41.242Z,7.90
2017-10-11T02:52:08.900Z,8.00
2017-10-11T02:54:37.383Z,9.00
2017-10-11T02:57:05.051Z,9.20
2017-10-11T02:59:32.762Z,8.93
2017-10-11T03:02:00.425Z,7.77
2017-10-11T03:04:28.135Z,8.17
2017-10-11T03:06:55.805Z,8.60
2017-10-11T03:09:23.498Z,8.10
2017-10-11T03:11:51.162Z,9.17
2017-10-11T03:14:18.864Z,7.90
2017-10-11T03:16:46.536Z,8.60
2017-10-11T03:19:14.239Z,9.17
2017-10-11T03:21:41.904Z,9.27
2017-10-11T03:24:09.628Z,9.93
2017-10-11T03:26:37.289Z,9.37
2017-10-11T03:29:04.942Z,9.80
2017-10-11T03:31:32.643Z,8.70
2017-10-11T03:34:00.299Z,10.00
2017-10-11T03:36:28.059Z,10.97
2017-10-11T03:38:55.724Z,10.10
2017-10-11T03:41:23.439Z,11.40
2017-10-11T03:43:51.107Z,10.67
2017-10-11T03:46:18.812Z,11.30
2017-10-11T03:48:46.475Z,10.67
2017-10-11T03:51:14.952Z,11.90
2017-10-11T03:53:43.383Z,11.40
2017-10-11T03:56:11.100Z,10.20
2017-10-11T03:58:39.535Z,10.30
2017-10-11T04:01:07.246Z,11.03
2017-10-11T04:03:35.708Z,10.37
2017-10-11T04:06:04.219Z,10.37
2017-10-11T04:08:31.879Z,9.37
2017-10-11T04:10:59.592Z,10.00
2017-10-11T04:13:27.255Z,8.83
2017-10-11T04:15:54.963Z,9.30
2017-10-11T04:18:22.659Z,9.07
2017-10-11T04:20:50.404Z,9.27
2017-10-11T04:23:18.107Z,8.77
2017-10-11T04:25:46.626Z,8.40
2017-10-11T04:28:14.329Z,9.00
2017-10-11T04:30:42.027Z,8.37
2017-10-11T04:33:09.765Z,8.23
2017-10-11T04:35:37.453Z,8.40
2017-10-11T04:38:05.194Z,7.80
2017-10-11T04:40:33.661Z,7.10
2017-10-11T04:43:01.414Z,7.67
2017-10-11T04:45:29.117Z,7.93
2017-10-11T04:47:56.883Z,7.80
2017-10-11T04:50:24.575Z,7.43
2017-10-11T04:52:52.284Z,7.77
2017-10-11T04:55:20.713Z,8.20
2017-10-11T04:57:49.191Z,7.20
2017-10-11T05:00:16.863Z,7.13
2017-10-11T05:02:44.559Z,7.33
2017-10-11T05:05:12.991Z,7.07
2017-10-11T05:07:40.691Z,6.73
2017-10-11T05:10:09.112Z,7.63
2017-10-11T05:12:36.819Z,7.67
2017-10-11T05:15:05.263Z,7.63
2017-10-11T05:17:32.967Z,7.30
2017-10-11T05:20:01.414Z,8.17
2017-10-11T05:22:29.131Z,7.50
2017-10-11T05:24:56.791Z,6.93
2017-10-11T05:27:24.487Z,7.73
2017-10-11T05:29:52.153Z,8.87
2017-10-11T05:32:19.867Z,9.00
2017-10-11T05:34:47.527Z,7.20
2017-10-11T05:37:15.185Z,7.07
2017-10-11T05:39:42.894Z,6.90
2017-10-11T05:42:10.555Z,8.00
2017-10-11T05:44:38.257Z,7.63
2017-10-11T05:47:05.910Z,7.00
2017-10-11T05:49:33.608Z,6.30
2017-10-11T05:52:01.264Z,6.77
2017-10-11T05:54:28.971Z,6.93
2017-10-11T05:56:57.395Z,7.10
2017-10-11T05:59:25.102Z,6.93
2017-10-11T06:01:52.760Z,7.40
2017-10-11T06:04:20.464Z,6.93
2017-10-11T06:06:48.115Z,7.23
2017-10-11T06:09:15.816Z,7.10
2017-10-11T06:11:43.475Z,5.73
2017-10-11T06:14:11.175Z,6.90
2017-10-11T06:16:39.605Z,7.27
2017-10-11T06:19:07.308Z,7.10
2017-10-11T06:21:35.736Z,6.10
2017-10-11T06:24:03.442Z,6.50
2017-10-11T06:26:31.863Z,6.50
2017-10-11T06:28:59.569Z,6.57
2017-10-11T06:31:27.231Z,6.70
2017-10-11T06:33:55.720Z,6.20
2017-10-11T06:36:24.172Z,6.53
2017-10-11T06:38:51.883Z,6.37
2017-10-11T06:41:19.543Z,6.70
2017-10-11T06:43:47.204Z,6.40
2017-10-11T06:46:14.920Z,7.57
2017-10-11T06:48:42.579Z,7.10
2017-10-11T06:51:10.289Z,6.97
2017-10-11T06:53:37.964Z,7.43
2017-10-11T06:56:05.707Z,6.93
2017-10-11T06:58:33.408Z,6.93
2017-10-11T07:01:01.133Z,6.97
2017-10-11T07:03:28.796Z,6.97
2017-10-11T07:05:56.496Z,7.70
2017-10-11T07:08:24.148Z,7.33
2017-10-11T07:10:51.878Z,6.87
2017-10-11T07:13:19.536Z,6.53
2017-10-11T07:15:47.251Z,6.80
2017-10-11T07:18:15.683Z,6.43
2017-10-11T07:20:43.379Z,6.23
2017-10-11T07:23:11.048Z,6.27
2017-10-11T07:25:39.519Z,5.90
2017-10-11T07:28:07.187Z,5.53
2017-10-11T07:30:35.660Z,6.17
2017-10-11T07:33:04.102Z,7.30
2017-10-11T07:35:31.805Z,6.43
2017-10-11T07:38:00.228Z,7.10
2017-10-11T07:40:27.939Z,7.33
2017-10-11T07:42:56.367Z,6.47
2017-10-11T07:45:24.044Z,6.93
2017-10-11T07:47:51.783Z,6.30
2017-10-11T07:50:19.445Z,6.60
2017-10-11T07:52:47.168Z,6.63
2017-10-11T07:55:14.861Z,6.73
2017-10-11T07:57:42.563Z,6.73
2017-10-11T08:00:10.286Z,6.63
2017-10-11T08:02:38.003Z,7.80
2017-10-11T08:05:06.447Z,6.80
2017-10-11T08:07:35.092Z,6.60
2017-10-11T08:10:02.811Z,6.43
2017-10-11T08:12:30.535Z,7.33
2017-10-11T08:14:58.228Z,6.70
2017-10-11T08:17:25.949Z,6.30
2017-10-11T08:19:53.608Z,6.93
2017-10-11T08:22:21.313Z,8.03
2017-10-11T08:24:48.983Z,6.97
2017-10-11T08:27:17.447Z,7.30
2017-10-11T08:29:45.109Z,5.60
2017-10-11T08:32:12.815Z,5.83
2017-10-11T08:34:40.476Z,6.17
2017-10-11T08:37:08.179Z,6.37
2017-10-11T08:39:35.843Z,6.13
2017-10-11T08:42:03.562Z,5.60
2017-10-11T08:44:31.220Z,6.23
2017-10-11T08:46:58.882Z,5.80
2017-10-11T08:49:26.580Z,5.23
2017-10-11T08:51:54.245Z,4.87
2017-10-11T08:54:21.944Z,5.37
2017-10-11T08:56:49.594Z,4.80
2017-10-11T08:59:17.297Z,4.80
2017-10-11T09:01:44.959Z,4.23
2017-10-11T09:04:12.659Z,4.40
2017-10-11T09:06:41.079Z,4.87
2017-10-11T09:09:08.787Z,4.37
2017-10-11T09:11:37.247Z,4.40
2017-10-11T09:14:04.986Z,4.57
2017-10-11T09:16:32.676Z,4.40
2017-10-11T09:19:00.425Z,4.30
2017-10-11T09:21:28.092Z,4.27
2017-10-11T09:23:55.808Z,4.97
2017-10-11T09:26:23.466Z,5.50
2017-10-11T09:28:51.171Z,4.07
2017-10-11T09:31:18.832Z,4.47
2017-10-11T09:33:46.575Z,5.20
2017-10-11T09:36:14.228Z,4.70
2017-10-11T09:38:41.938Z,4.87
2017-10-11T09:41:10.369Z,4.10
2017-10-11T09:43:38.059Z,4.40
2017-10-11T09:46:05.720Z,4.27
2017-10-11T09:48:33.423Z,4.17
2017-10-11T09:51:01.072Z,4.33
2017-10-11T09:53:28.801Z,3.67
2017-10-11T09:55:57.236Z,4.00
2017-10-11T09:58:24.895Z,4.23
2017-10-11T10:00:52.607Z,3.77
2017-10-11T10:03:21.037Z,3.70
2017-10-11T10:05:48.735Z,3.83
2017-10-11T10:08:16.395Z,3.90
2017-10-11T10:10:44.905Z,3.73
2017-10-11T10:13:12.617Z,4.97
2017-10-11T10:15:40.324Z,3.47
2017-10-11T10:18:07.997Z,4.10
2017-10-11T10:20:35.701Z,3.57
2017-10-11T10:23:03.364Z,3.70
2017-10-11T10:25:31.067Z,3.97
2017-10-11T10:27:58.734Z,3.60
2017-10-11T10:30:26.445Z,3.57
2017-10-11T10:32:54.143Z,4.10
2017-10-11T10:35:21.843Z,3.37
2017-10-11T10:37:49.519Z,3.80
2017-10-11T10:40:17.257Z,3.73
2017-10-11T10:42:44.917Z,4.07
2017-10-11T10:45:12.625Z,4.00
2017-10-11T10:47:41.059Z,3.97
2017-10-11T10:50:08.760Z,3.70
2017-10-11T10:52:37.225Z,4.30
2017-10-11T10:55:05.759Z,4.20
2017-10-11T10:57:33.455Z,3.73
2017-10-11T11:00:01.116Z,3.80
2017-10-11T11:02:28.892Z,3.37
2017-10-11T11:04:57.329Z,3.67
2017-10-11T11:07:25.031Z,3.57
2017-10-11T11:09:53.455Z,3.50
2017-10-11T11:12:21.161Z,3.70
2017-10-11T11:14:48.823Z,3.50
2017-10-11T11:17:16.520Z,3.73
2017-10-11T11:19:44.175Z,3.27
2017-10-11T11:22:11.887Z,3.83
2017-10-11T11:24:39.548Z,3.20
2017-10-11T11:27:07.258Z,2.80
2017-10-11T11:29:34.921Z,3.40
2017-10-11T11:32:02.615Z,3.27
2017-10-11T11:34:30.268Z,3.10
2017-10-11T11:36:58.735Z,3.33
2017-10-11T11:39:26.387Z,2.63
2017-10-11T11:41:54.082Z,2.60
2017-10-11T11:44:21.740Z,2.37
2017-10-11T11:46:49.447Z,2.63
2017-10-11T11:49:17.118Z,2.60
2017-10-11T11:51:44.818Z,2.53
2017-10-11T11:54:12.503Z,1.90
2017-10-11T11:56:40.958Z,2.20
2017-10-11T11:59:08.654Z,2.73
2017-10-11T12:01:37.080Z,2.40
2017-10-11T12:04:04.799Z,2.30
2017-10-11T12:06:32.460Z,2.10
2017-10-11T12:09:00.171Z,2.37
2017-10-11T12:11:27.836Z,2.30
2017-10-11T12:13:55.544Z,2.27
2017-10-11T12:16:23.204Z,2.43
2017-10-11T12:18:50.913Z,1.70
2017-10-11T12:21:18.678Z,2.37
2017-10-11T12:23:46.384Z,1.87
2017-10-11T12:26:14.052Z,2.00
2017-10-11T12:28:41.781Z,2.50
2017-10-11T12:31:10.215Z,2.20
2017-10-11T12:33:37.913Z,2.40
2017-10-11T12:36:06.346Z,2.47
2017-10-11T12:38:34.052Z,2.63
2017-10-11T12:41:02.476Z,2.70
2017-10-11T12:43:30.170Z,3.93
2017-10-11T12:45:57.833Z,2.00
2017-10-11T12:48:25.535Z,2.03
2017-10-11T12:50:53.199Z,1.90
2017-10-11T12:53:20.912Z,2.17
2017-10-11T12:55:48.567Z,2.30
2017-10-11T12:58:16.243Z,1.93
2017-10-11T13:00:43.975Z,2.33
2017-10-11T13:03:11.640Z,2.20
2017-10-11T13:05:39.351Z,3.00
2017-10-11T13:08:07.013Z,2.17
2017-10-11T13:10:34.720Z,1.90
2017-10-11T13:13:02.385Z,1.63
2017-10-11T13:15:30.096Z,2.40
2017-10-11T13:17:57.759Z,12.33
2017-10-11T13:20:25.468Z,9.17
2017-10-11T13:22:53.128Z,12.40
2017-10-11T13:25:20.819Z,2.80
2017-10-11T13:27:48.483Z,1.93
2017-10-11T13:30:16.200Z,2.43
2017-10-11T13:32:43.895Z,2.20
2017-10-11T13:35:12.368Z,1.90
2017-10-11T13:37:40.791Z,2.23
2017-10-11T13:40:08.496Z,2.33
2017-10-11T13:42:36.919Z,2.10
2017-10-11T13:45:04.624Z,2.27
2017-10-11T13:47:32.279Z,2.60
2017-10-11T13:50:00.169Z,2.30
2017-10-11T13:52:28.728Z,4.33
2017-10-11T13:54:56.463Z,2.40
2017-10-11T13:57:24.138Z,1.90
2017-10-11T13:59:51.833Z,2.30
2017-10-11T14:02:19.586Z,2.73
2017-10-11T14:04:48.098Z,2.20
2017-10-11T14:07:15.768Z,3.03
2017-10-11T14:09:43.504Z,2.17
2017-10-11T14:12:11.156Z,2.30
2017-10-11T14:14:39.676Z,2.00
2017-10-11T14:17:07.371Z,1.90
2017-10-11T14:19:35.802Z,2.30
2017-10-11T14:22:03.513Z,1.90
2017-10-11T14:24:31.175Z,3.03
2017-10-11T14:26:59.682Z,2.07
2017-10-11T14:29:27.349Z,2.00
2017-10-11T14:31:55.056Z,2.47
2017-10-11T14:34:22.710Z,2.27
2017-10-11T14:36:50.420Z,2.40
2017-10-11T14:39:18.099Z,3.00
2017-10-11T14:41:45.808Z,8.00
2017-10-11T14:44:13.520Z,2.87
2017-10-11T14:46:41.223Z,2.20
2017-10-11T14:49:08.894Z,2.93
2017-10-11T14:51:37.367Z,2.10
2017-10-11T14:54:05.031Z,1.90
2017-10-11T14:56:33.496Z,2.13
2017-10-11T14:59:01.157Z,3.10
2017-10-11T15:01:28.855Z,2.20
2017-10-11T15:03:56.514Z,2.23
2017-10-11T15:06:24.215Z,1.83
2017-10-11T15:08:51.879Z,1.90
2017-10-11T15:11:19.594Z,1.90
2017-10-11T15:13:47.270Z,2.03
2017-10-11T15:16:14.928Z,2.10
2017-10-11T15:18:42.643Z,2.03
2017-10-11T15:21:10.303Z,2.20
2017-10-11T15:23:38.059Z,1.80
2017-10-11T15:26:05.773Z,2.03
2017-10-11T15:28:33.474Z,1.80
2017-10-11T15:31:01.154Z,2.40
2017-10-11T15:33:29.622Z,2.20
2017-10-11T15:35:57.288Z,2.10
2017-10-11T15:38:25.782Z,2.40
2017-10-11T15:40:54.212Z,2.23
2017-10-11T15:43:21.913Z,2.37
2017-10-11T15:45:50.331Z,2.20
2017-10-11T15:48:18.043Z,2.50
2017-10-11T15:50:46.471Z,2.40
2017-10-11T15:53:14.168Z,2.67
2017-10-11T15:55:41.831Z,2.13
2017-10-11T15:58:09.560Z,2.60
2017-10-11T16:00:37.228Z,2.40
2017-10-11T16:03:04.932Z,2.97
2017-10-11T16:05:33.364Z,4.10
2017-10-11T16:08:01.064Z,6.20
2017-10-11T16:10:29.497Z,4.17
2017-10-11T16:12:57.208Z,3.07
2017-10-11T16:15:24.918Z,2.57
2017-10-11T16:17:52.572Z,3.67
2017-10-11T16:20:20.304Z,3.10
2017-10-11T16:22:47.963Z,2.63
2017-10-11T16:25:15.672Z,2.77
2017-10-11T16:27:43.363Z,6.63
2017-10-11T16:30:11.831Z,6.20
2017-10-11T16:32:40.255Z,2.60
2017-10-11T16:35:07.957Z,2.30
2017-10-11T16:37:35.626Z,2.40
2017-10-11T16:40:04.115Z,2.27
2017-10-11T16:42:32.547Z,2.27
2017-10-11T16:45:00.248Z,2.40
2017-10-11T16:47:28.671Z,2.20
2017-10-11T16:49:56.375Z,2.13
2017-10-11T16:52:24.034Z,2.10
2017-10-11T16:54:51.744Z,2.40
2017-10-11T16:57:19.474Z,2.07
2017-10-11T16:59:47.941Z,2.20
2017-10-11T17:02:16.372Z,33.67
2017-10-11T17:04:44.079Z,23.10
2017-10-11T17:07:12.508Z,7.10
2017-10-11T17:09:40.217Z,14.87
2017-10-11T17:12:08.642Z,3.77
2017-10-11T17:14:36.396Z,4.07
2017-10-11T17:17:04.050Z,3.17
2017-10-11T17:19:31.708Z,3.07
2017-10-11T17:21:59.447Z,2.47
2017-10-11T17:24:27.151Z,2.50
2017-10-11T17:26:54.859Z,2.33
2017-10-11T17:29:23.284Z,2.20
2017-10-11T17:31:50.991Z,2.37
2017-10-11T17:34:19.431Z,3.13
2017-10-11T17:36:47.136Z,2.87
2017-10-11T17:39:15.573Z,2.93
2017-10-11T17:41:43.287Z,3.20
2017-10-11T17:44:10.949Z,2.67
2017-10-11T17:46:38.658Z,2.87
2017-10-11T17:49:06.331Z,3.93
2017-10-11T17:51:34.087Z,4.03
2017-10-11T17:54:01.771Z,4.30
2017-10-11T17:56:30.265Z,7.00
2017-10-11T17:58:57.940Z,5.33
2017-10-11T18:01:25.700Z,5.03
2017-10-11T18:03:53.363Z,4.63
2017-10-11T18:06:21.091Z,5.30
2017-10-11T18:08:49.506Z,7.20
2017-10-11T18:11:17.213Z,5.93
2017-10-11T18:13:44.921Z,5.57
2017-10-11T18:16:12.625Z,4.03
2017-10-11T18:18:40.295Z,3.90
2017-10-11T18:21:07.966Z,3.20
2017-10-11T18:23:36.460Z,3.00
2017-10-11T18:26:04.131Z,3.57
2017-10-11T18:28:31.849Z,3.37
2017-10-11T18:30:59.511Z,2.90
2017-10-11T18:33:27.219Z,2.87
2017-10-11T18:35:54.886Z,3.40
2017-10-11T18:38:22.597Z,3.63
2017-10-11T18:40:51.096Z,4.30
2017-10-11T18:43:18.809Z,3.70
2017-10-11T18:45:46.467Z,3.83
2017-10-11T18:48:14.166Z,4.57
2017-10-11T18:50:42.612Z,4.63
2017-10-11T18:53:10.326Z,3.50
2017-10-11T18:55:38.020Z,3.67
2017-10-11T18:58:06.532Z,4.00
2017-10-11T19:00:34.980Z,4.43
2017-10-11T19:03:02.745Z,4.77
2017-10-11T19:05:30.437Z,4.90
2017-10-11T19:07:58.942Z,4.30
2017-10-11T19:10:26.616Z,4.20
2017-10-11T19:12:54.332Z,5.27
2017-10-11T19:15:22.779Z,6.73
2017-10-11T19:17:50.501Z,4.50
2017-10-11T19:20:18.164Z,5.30
2017-10-11T19:22:45.878Z,5.60
2017-10-11T19:25:13.553Z,5.30
2017-10-11T19:27:42.074Z,5.50
2017-10-11T19:30:09.745Z,4.57
2017-10-11T19:32:37.418Z,6.03
2017-10-11T19:35:05.160Z,5.07
2017-10-11T19:37:32.857Z,4.63
2017-10-11T19:40:00.598Z,5.30
2017-10-11T19:42:28.324Z,5.50
2017-10-11T19:44:56.059Z,5.80
2017-10-11T19:47:24.490Z,5.60
2017-10-11T19:49:52.193Z,4.90
2017-10-11T19:52:20.618Z,4.60
2017-10-11T19:54:48.394Z,4.70
2017-10-11T19:57:16.099Z,4.90
2017-10-11T19:59:44.601Z,6.10
2017-10-11T20:02:12.292Z,5.40
2017-10-11T20:04:40.040Z,4.90
2017-10-11T20:07:07.743Z,4.43
2017-10-11T20:09:35.451Z,5.10
2017-10-11T20:12:03.114Z,4.40
2017-10-11T20:14:30.817Z,4.47
2017-10-11T20:16:58.491Z,4.43
2017-10-11T20:19:26.968Z,3.93
2017-10-11T20:21:55.391Z,4.20
2017-10-11T20:24:23.091Z,3.60
2017-10-11T20:26:50.760Z,3.47
2017-10-11T20:29:19.247Z,3.70
2017-10-11T20:31:47.667Z,3.70
2017-10-11T20:34:15.325Z,4.13
2017-10-11T20:36:43.035Z,4.43
2017-10-11T20:39:10.700Z,3.77
2017-10-11T20:41:39.169Z,3.60
2017-10-11T20:44:06.826Z,3.77
2017-10-11T20:46:34.560Z,3.83
2017-10-11T20:49:02.251Z,3.73
2017-10-11T20:51:29.947Z,3.73
2017-10-11T20:53:57.616Z,3.50
2017-10-11T20:56:25.449Z,4.27
2017-10-11T20:58:53.871Z,4.30
2017-10-11T21:01:21.575Z,4.77
2017-10-11T21:03:50.003Z,3.80
2017-10-11T21:06:17.716Z,3.60
2017-10-11T21:08:46.142Z,3.30
2017-10-11T21:11:13.847Z,3.43
2017-10-11T21:13:41.498Z,3.40
2017-10-11T21:16:09.205Z,3.33
2017-10-11T21:18:36.864Z,3.47
2017-10-11T21:21:04.574Z,4.17
2017-10-11T21:23:32.233Z,4.60
2017-10-11T21:25:59.937Z,4.13
2017-10-11T21:28:27.590Z,3.20
2017-10-11T21:30:55.298Z,2.60
2017-10-11T21:33:22.987Z,2.60
2017-10-11T21:35:51.512Z,2.63
2017-10-11T21:38:19.163Z,2.80
2017-10-11T21:40:46.849Z,3.17
2017-10-11T21:43:14.547Z,3.30
2017-10-11T21:45:42.972Z,3.83
2017-10-11T21:48:10.672Z,3.47
2017-10-11T21:50:38.339Z,3.40
2017-10-11T21:53:06.034Z,3.30
2017-10-11T21:55:33.691Z,3.17
2017-10-11T21:58:01.396Z,3.20
2017-10-11T22:00:29.860Z,3.30
2017-10-11T22:02:57.556Z,3.50
2017-10-11T22:05:25.216Z,3.43
2017-10-11T22:07:52.915Z,3.30
2017-10-11T22:10:20.573Z,2.80
2017-10-11T22:12:48.268Z,2.70
2017-10-11T22:15:15.929Z,3.00
2017-10-11T22:17:43.631Z,2.77
2017-10-11T22:20:12.055Z,2.43
2017-10-11T22:22:39.752Z,2.20
2017-10-11T22:25:07.412Z,2.53
2017-10-11T22:27:35.115Z,2.57
2017-10-11T22:30:02.836Z,3.10
2017-10-11T22:32:31.328Z,2.53
2017-10-11T22:34:59.816Z,2.43
2017-10-11T22:37:27.559Z,2.70
2017-10-11T22:39:56.007Z,2.80
2017-10-11T22:42:23.672Z,3.17
2017-10-11T22:44:51.367Z,2.87
2017-10-11T22:47:19.803Z,2.37
2017-10-11T22:49:47.506Z,2.90
2017-10-11T22:52:15.161Z,2.33
2017-10-11T22:54:43.628Z,3.07
2017-10-11T22:57:12.051Z,2.40
2017-10-11T22:59:39.746Z,2.60
2017-10-11T23:02:07.450Z,2.87
2017-10-11T23:04:35.501Z,2.67
2017-10-11T23:07:03.936Z,2.90
2017-10-11T23:09:31.635Z,2.50
2017-10-11T23:12:00.067Z,2.60
2017-10-11T23:14:27.767Z,3.13
2017-10-11T23:16:56.194Z,2.90
2017-10-11T23:19:23.897Z,2.73
2017-10-11T23:21:51.554Z,2.90
2017-10-11T23:24:19.256Z,2.90
2017-10-11T23:26:46.916Z,3.40
2017-10-11T23:29:14.617Z,3.30
2017-10-11T23:31:42.270Z,2.53
2017-10-11T23:34:09.992Z,3.03
2017-10-11T23:36:37.656Z,3.93
2017-10-11T23:39:05.383Z,3.27
2017-10-11T23:41:33.844Z,3.30
2017-10-11T23:44:01.650Z,3.53
2017-10-11T23:46:29.308Z,3.97
2017-10-11T23:48:57.028Z,3.30
2017-10-11T23:51:24.686Z,3.40
2017-10-11T23:53:52.348Z,4.00
2017-10-11T23:56:20.043Z,3.50
2017-10-11T23:58:47.704Z,3.50
